sensor_id;sensor_type;location;lat;lon;timestamp;pressure;altitude;pressure_sealevel;temperature;humidity
39223;BME280;24936;46.328;11.026;2023-09-30T00:00:43;95149.00;;;11.16;100.00
39223;BME280;24936;46.328;11.026;2023-09-30T00:03:09;95149.47;;;11.22;100.00
39223;BME280;24936;46.328;11.026;2023-09-30T00:05:40;95151.88;;;11.25;100.00
39223;BME280;24936;46.328;11.026;2023-09-30T00:08:06;95145.19;;;11.21;100.00
39223;BME280;24936;46.328;11.026;2023-09-30T00:10:32;95146.47;;;11.26;100.00
39223;BME280;24936;46.328;11.026;2023-09-30T00:12:57;95148.00;;;11.29;100.00
39223;BME280;24936;46.328;11.026;2023-09-30T00:15:23;95150.97;;;11.36;100.00
39223;BME280;24936;46.328;11.026;2023-09-30T00:17:49;95152.63;;;11.37;100.00
39223;BME280;24936;46.328;11.026;2023-09-30T00:20:14;95143.25;;;11.44;100.00
39223;BME280;24936;46.328;11.026;2023-09-30T00:22:41;95145.13;;;11.53;100.00
39223;BME280;24936;46.328;11.026;2023-09-30T00:25:06;95137.91;;;11.55;100.00
39223;BME280;24936;46.328;11.026;2023-09-30T00:27:32;95136.63;;;11.50;100.00
39223;BME280;24936;46.328;11.026;2023-09-30T00:29:57;95134.47;;;11.34;100.00
39223;BME280;24936;46.328;11.026;2023-09-30T00:32:23;95134.19;;;11.37;100.00
39223;BME280;24936;46.328;11.026;2023-09-30T00:34:48;95137.78;;;11.36;100.00
39223;BME280;24936;46.328;11.026;2023-09-30T00:37:14;95146.28;;;11.39;100.00
39223;BME280;24936;46.328;11.026;2023-09-30T00:39:39;95140.75;;;11.21;100.00
39223;BME280;24936;46.328;11.026;2023-09-30T00:42:05;95142.47;;;11.11;100.00
39223;BME280;24936;46.328;11.026;2023-09-30T00:44:30;95148.69;;;11.10;100.00
39223;BME280;24936;46.328;11.026;2023-09-30T00:46:56;95148.31;;;11.36;100.00
39223;BME280;24936;46.328;11.026;2023-09-30T00:49:25;95136.88;;;11.25;100.00
39223;BME280;24936;46.328;11.026;2023-09-30T00:51:51;95135.50;;;11.21;100.00
39223;BME280;24936;46.328;11.026;2023-09-30T00:54:18;95132.91;;;11.31;100.00
39223;BME280;24936;46.328;11.026;2023-09-30T00:56:46;95131.22;;;11.09;100.00
39223;BME280;24936;46.328;11.026;2023-09-30T00:59:15;95134.41;;;10.91;100.00
39223;BME280;24936;46.328;11.026;2023-09-30T01:01:41;95122.94;;;11.13;100.00
39223;BME280;24936;46.328;11.026;2023-09-30T01:04:09;95123.06;;;11.12;100.00
39223;BME280;24936;46.328;11.026;2023-09-30T01:06:35;95128.09;;;11.15;100.00
39223;BME280;24936;46.328;11.026;2023-09-30T01:09:01;95128.63;;;10.97;100.00
39223;BME280;24936;46.328;11.026;2023-09-30T01:11:26;95125.28;;;10.95;100.00
39223;BME280;24936;46.328;11.026;2023-09-30T01:13:52;95123.41;;;10.86;100.00
39223;BME280;24936;46.328;11.026;2023-09-30T01:16:17;95129.53;;;10.75;100.00
39223;BME280;24936;46.328;11.026;2023-09-30T01:18:43;95124.88;;;10.79;100.00
39223;BME280;24936;46.328;11.026;2023-09-30T01:21:09;95126.19;;;10.84;100.00
39223;BME280;24936;46.328;11.026;2023-09-30T01:23:35;95126.19;;;10.84;100.00
39223;BME280;24936;46.328;11.026;2023-09-30T01:26:05;95128.34;;;10.79;100.00
39223;BME280;24936;46.328;11.026;2023-09-30T01:28:32;95140.34;;;10.72;100.00
39223;BME280;24936;46.328;11.026;2023-09-30T01:30:58;95141.66;;;10.78;100.00
39223;BME280;24936;46.328;11.026;2023-09-30T01:33:24;95136.16;;;10.69;100.00
39223;BME280;24936;46.328;11.026;2023-09-30T01:35:49;95135.44;;;10.67;100.00
39223;BME280;24936;46.328;11.026;2023-09-30T01:38:15;95133.31;;;10.61;100.00
39223;BME280;24936;46.328;11.026;2023-09-30T01:40:41;95131.16;;;10.55;100.00
39223;BME280;24936;46.328;11.026;2023-09-30T01:43:07;95132.84;;;10.56;100.00
39223;BME280;24936;46.328;11.026;2023-09-30T01:45:33;95133.09;;;10.30;100.00
39223;BME280;24936;46.328;11.026;2023-09-30T01:48:00;95140.28;;;10.51;100.00
39223;BME280;24936;46.328;11.026;2023-09-30T01:50:26;95141.00;;;10.42;100.00
39223;BME280;24936;46.328;11.026;2023-09-30T01:52:51;95126.41;;;10.49;100.00
39223;BME280;24936;46.328;11.026;2023-09-30T01:55:17;95125.53;;;10.37;100.00
39223;BME280;24936;46.328;11.026;2023-09-30T01:57:42;95121.84;;;10.39;100.00
39223;BME280;24936;46.328;11.026;2023-09-30T02:00:08;95125.09;;;10.43;100.00
39223;BME280;24936;46.328;11.026;2023-09-30T02:02:38;95125.19;;;10.30;100.00
39223;BME280;24936;46.328;11.026;2023-09-30T02:05:04;95126.41;;;10.26;100.00
39223;BME280;24936;46.328;11.026;2023-09-30T02:07:29;95121.13;;;10.26;100.00
39223;BME280;24936;46.328;11.026;2023-09-30T02:09:55;95121.75;;;10.07;100.00
39223;BME280;24936;46.328;11.026;2023-09-30T02:12:21;95120.94;;;10.06;100.00
39223;BME280;24936;46.328;11.026;2023-09-30T02:14:46;95122.84;;;10.04;100.00
39223;BME280;24936;46.328;11.026;2023-09-30T02:17:12;95124.03;;;10.00;100.00
39223;BME280;24936;46.328;11.026;2023-09-30T02:19:38;95114.69;;;10.19;100.00
39223;BME280;24936;46.328;11.026;2023-09-30T02:22:04;95119.72;;;10.22;100.00
39223;BME280;24936;46.328;11.026;2023-09-30T02:24:30;95112.53;;;10.24;100.00
39223;BME280;24936;46.328;11.026;2023-09-30T02:26:55;95109.78;;;10.25;100.00
39223;BME280;24936;46.328;11.026;2023-09-30T02:29:21;95111.91;;;10.32;100.00
39223;BME280;24936;46.328;11.026;2023-09-30T02:31:46;95108.72;;;10.17;100.00
39223;BME280;24936;46.328;11.026;2023-09-30T02:34:11;95103.56;;;10.27;100.00
39223;BME280;24936;46.328;11.026;2023-09-30T02:36:37;95100.19;;;10.36;100.00
39223;BME280;24936;46.328;11.026;2023-09-30T02:39:05;95105.00;;;10.42;100.00
39223;BME280;24936;46.328;11.026;2023-09-30T02:41:31;95105.81;;;10.31;100.00
39223;BME280;24936;46.328;11.026;2023-09-30T02:43:56;95105.81;;;10.31;100.00
39223;BME280;24936;46.328;11.026;2023-09-30T02:46:22;95108.47;;;10.31;100.00
39223;BME280;24936;46.328;11.026;2023-09-30T02:48:47;95109.66;;;10.27;100.00
39223;BME280;24936;46.328;11.026;2023-09-30T02:51:12;95104.66;;;10.13;100.00
39223;BME280;24936;46.328;11.026;2023-09-30T02:53:38;95108.25;;;10.23;100.00
39223;BME280;24936;46.328;11.026;2023-09-30T02:56:04;95114.47;;;10.22;100.00
39223;BME280;24936;46.328;11.026;2023-09-30T02:58:30;95111.69;;;10.23;100.00
39223;BME280;24936;46.328;11.026;2023-09-30T03:00:55;95108.00;;;10.15;100.00
39223;BME280;24936;46.328;11.026;2023-09-30T03:03:21;95116.84;;;10.14;100.00
39223;BME280;24936;46.328;11.026;2023-09-30T03:05:47;95124.75;;;10.14;100.00
39223;BME280;24936;46.328;11.026;2023-09-30T03:08:14;95108.97;;;10.14;100.00
39223;BME280;24936;46.328;11.026;2023-09-30T03:10:40;95115.19;;;10.01;100.00
39223;BME280;24936;46.328;11.026;2023-09-30T03:13:06;95116.63;;;9.94;100.00
39223;BME280;24936;46.328;11.026;2023-09-30T03:15:36;95112.81;;;9.87;100.00
39223;BME280;24936;46.328;11.026;2023-09-30T03:18:03;95121.53;;;9.87;100.00
39223;BME280;24936;46.328;11.026;2023-09-30T03:20:29;95123.53;;;9.84;100.00
39223;BME280;24936;46.328;11.026;2023-09-30T03:22:56;95123.81;;;9.92;100.00
39223;BME280;24936;46.328;11.026;2023-09-30T03:25:22;95131.78;;;9.90;100.00
39223;BME280;24936;46.328;11.026;2023-09-30T03:27:47;95121.41;;;9.89;100.00
39223;BME280;24936;46.328;11.026;2023-09-30T03:30:14;95128.56;;;9.87;100.00
39223;BME280;24936;46.328;11.026;2023-09-30T03:32:41;95127.63;;;9.76;100.00
39223;BME280;24936;46.328;11.026;2023-09-30T03:35:08;95131.44;;;9.84;100.00
39223;BME280;24936;46.328;11.026;2023-09-30T03:37:39;95124.28;;;9.86;100.00
39223;BME280;24936;46.328;11.026;2023-09-30T03:40:05;95126.06;;;9.85;100.00
39223;BME280;24936;46.328;11.026;2023-09-30T03:42:37;95126.19;;;9.84;100.00
39223;BME280;24936;46.328;11.026;2023-09-30T03:45:04;95123.53;;;9.84;100.00
39223;BME280;24936;46.328;11.026;2023-09-30T03:47:34;95121.53;;;9.87;100.00
39223;BME280;24936;46.328;11.026;2023-09-30T03:49:59;95121.63;;;9.63;100.00
39223;BME280;24936;46.328;11.026;2023-09-30T03:52:25;95124.72;;;9.57;100.00
39223;BME280;24936;46.328;11.026;2023-09-30T03:54:51;95121.88;;;9.71;100.00
39223;BME280;24936;46.328;11.026;2023-09-30T03:57:18;95117.47;;;9.72;100.00
39223;BME280;24936;46.328;11.026;2023-09-30T03:59:44;95115.44;;;9.64;100.00
39223;BME280;24936;46.328;11.026;2023-09-30T04:02:11;95114.13;;;9.70;100.00
39223;BME280;24936;46.328;11.026;2023-09-30T04:04:36;95107.66;;;9.62;100.00
39223;BME280;24936;46.328;11.026;2023-09-30T04:07:02;95109.09;;;9.55;100.00
39223;BME280;24936;46.328;11.026;2023-09-30T04:09:31;95119.00;;;9.52;100.00
39223;BME280;24936;46.328;11.026;2023-09-30T04:11:57;95108.84;;;9.47;100.00
39223;BME280;24936;46.328;11.026;2023-09-30T04:14:22;95107.78;;;9.49;100.00
39223;BME280;24936;46.328;11.026;2023-09-30T04:16:48;95107.03;;;9.47;100.00
39223;BME280;24936;46.328;11.026;2023-09-30T04:19:13;95114.81;;;9.49;100.00
39223;BME280;24936;46.328;11.026;2023-09-30T04:21:39;95104.69;;;9.67;100.00
39223;BME280;24936;46.328;11.026;2023-09-30T04:24:05;95104.91;;;9.87;100.00
39223;BME280;24936;46.328;11.026;2023-09-30T04:26:32;95105.88;;;9.74;100.00
39223;BME280;24936;46.328;11.026;2023-09-30T04:28:57;95110.53;;;9.71;100.00
39223;BME280;24936;46.328;11.026;2023-09-30T04:31:23;95108.13;;;9.68;100.00
39223;BME280;24936;46.328;11.026;2023-09-30T04:33:49;95110.19;;;9.64;100.00
39223;BME280;24936;46.328;11.026;2023-09-30T04:36:18;95107.53;;;9.64;100.00
39223;BME280;24936;46.328;11.026;2023-09-30T04:38:44;95114.13;;;9.70;100.00
39223;BME280;24936;46.328;11.026;2023-09-30T04:41:10;95113.97;;;9.83;100.00
39223;BME280;24936;46.328;11.026;2023-09-30T04:43:35;95113.03;;;9.84;100.00
39223;BME280;24936;46.328;11.026;2023-09-30T04:46:04;95120.22;;;9.82;100.00
39223;BME280;24936;46.328;11.026;2023-09-30T04:48:30;95119.88;;;9.86;100.00
39223;BME280;24936;46.328;11.026;2023-09-30T04:50:57;95113.97;;;9.83;100.00
39223;BME280;24936;46.328;11.026;2023-09-30T04:53:22;95109.81;;;9.80;100.00
39223;BME280;24936;46.328;11.026;2023-09-30T04:55:48;95122.72;;;9.83;100.00
39223;BME280;24936;46.328;11.026;2023-09-30T04:58:17;95125.72;;;9.78;100.00
39223;BME280;24936;46.328;11.026;2023-09-30T05:00:43;95111.97;;;9.75;100.00
39223;BME280;24936;46.328;11.026;2023-09-30T05:03:09;95114.13;;;9.70;100.00
39223;BME280;24936;46.328;11.026;2023-09-30T05:05:34;95123.53;;;9.72;100.00
39223;BME280;24936;46.328;11.026;2023-09-30T05:08:00;95125.22;;;9.62;100.00
39223;BME280;24936;46.328;11.026;2023-09-30T05:10:26;95119.38;;;9.70;100.00
39223;BME280;24936;46.328;11.026;2023-09-30T05:12:52;95126.31;;;9.82;100.00
39223;BME280;24936;46.328;11.026;2023-09-30T05:15:20;95135.75;;;9.73;100.00
39223;BME280;24936;46.328;11.026;2023-09-30T05:17:48;95125.47;;;9.70;100.00
39223;BME280;24936;46.328;11.026;2023-09-30T05:20:14;95144.47;;;9.74;100.00
39223;BME280;24936;46.328;11.026;2023-09-30T05:22:42;95147.09;;;9.74;100.00
39223;BME280;24936;46.328;11.026;2023-09-30T05:25:13;95153.69;;;9.79;100.00
39223;BME280;24936;46.328;11.026;2023-09-30T05:27:43;95158.44;;;9.74;100.00
39223;BME280;24936;46.328;11.026;2023-09-30T05:30:09;95165.84;;;9.69;100.00
39223;BME280;24936;46.328;11.026;2023-09-30T05:32:36;95164.06;;;9.81;100.00
39223;BME280;24936;46.328;11.026;2023-09-30T05:35:05;95166.09;;;9.77;100.00
39223;BME280;24936;46.328;11.026;2023-09-30T05:37:31;95162.03;;;9.73;100.00
39223;BME280;24936;46.328;11.026;2023-09-30T05:39:56;95165.50;;;9.74;100.00
39223;BME280;24936;46.328;11.026;2023-09-30T05:42:22;95168.50;;;9.81;100.00
39223;BME280;24936;46.328;11.026;2023-09-30T05:44:47;95169.31;;;9.81;100.00
39223;BME280;24936;46.328;11.026;2023-09-30T05:47:14;95171.84;;;9.94;100.00
39223;BME280;24936;46.328;11.026;2023-09-30T05:49:40;95159.66;;;10.04;100.00
39223;BME280;24936;46.328;11.026;2023-09-30T05:52:06;95155.59;;;10.00;100.00
39223;BME280;24936;46.328;11.026;2023-09-30T05:54:32;95157.75;;;9.95;100.00
39223;BME280;24936;46.328;11.026;2023-09-30T05:56:58;95154.63;;;10.01;100.00
39223;BME280;24936;46.328;11.026;2023-09-30T05:59:23;95148.91;;;10.07;100.00
39223;BME280;24936;46.328;11.026;2023-09-30T06:01:51;95146.88;;;10.00;100.00
39223;BME280;24936;46.328;11.026;2023-09-30T06:04:16;95145.56;;;9.94;100.00
39223;BME280;24936;46.328;11.026;2023-09-30T06:06:42;95151.03;;;10.14;100.00
39223;BME280;24936;46.328;11.026;2023-09-30T06:09:08;95152.97;;;10.23;100.00
39223;BME280;24936;46.328;11.026;2023-09-30T06:11:34;95150.34;;;10.23;100.00
39223;BME280;24936;46.328;11.026;2023-09-30T06:14:01;95159.28;;;10.20;100.00
39223;BME280;24936;46.328;11.026;2023-09-30T06:16:27;95154.88;;;10.21;100.00
39223;BME280;24936;46.328;11.026;2023-09-30T06:18:53;95162.28;;;10.27;100.00
39223;BME280;24936;46.328;11.026;2023-09-30T06:21:20;95158.69;;;10.39;100.00
39223;BME280;24936;46.328;11.026;2023-09-30T06:23:49;95153.19;;;10.43;100.00
39223;BME280;24936;46.328;11.026;2023-09-30T06:26:17;95153.44;;;10.39;100.00
39223;BME280;24936;46.328;11.026;2023-09-30T06:28:43;95161.00;;;10.44;100.00
39223;BME280;24936;46.328;11.026;2023-09-30T06:31:10;95165.84;;;10.60;100.00
39223;BME280;24936;46.328;11.026;2023-09-30T06:33:37;95163.69;;;10.65;100.00
39223;BME280;24936;46.328;11.026;2023-09-30T06:36:13;95164.03;;;10.72;100.00
39223;BME280;24936;46.328;11.026;2023-09-30T06:38:43;95166.44;;;10.64;100.00
39223;BME280;24936;46.328;11.026;2023-09-30T06:41:09;95175.19;;;10.64;100.00
39223;BME280;24936;46.328;11.026;2023-09-30T06:43:35;95172.78;;;10.61;100.00
39223;BME280;24936;46.328;11.026;2023-09-30T06:46:07;95174.91;;;10.67;100.00
39223;BME280;24936;46.328;11.026;2023-09-30T06:48:35;95185.44;;;10.67;100.00
39223;BME280;24936;46.328;11.026;2023-09-30T06:51:00;95182.38;;;10.62;100.00
39223;BME280;24936;46.328;11.026;2023-09-30T06:53:27;95182.56;;;10.70;100.00
39223;BME280;24936;46.328;11.026;2023-09-30T06:55:52;95181.69;;;10.93;100.00
39223;BME280;24936;46.328;11.026;2023-09-30T06:58:18;95182.88;;;11.00;100.00
39223;BME280;24936;46.328;11.026;2023-09-30T07:00:50;95184.03;;;11.07;100.00
39223;BME280;24936;46.328;11.026;2023-09-30T07:03:19;95192.22;;;11.25;100.00
39223;BME280;24936;46.328;11.026;2023-09-30T07:05:45;95192.63;;;11.42;100.00
39223;BME280;24936;46.328;11.026;2023-09-30T07:08:14;95190.72;;;11.65;100.00
39223;BME280;24936;46.328;11.026;2023-09-30T07:10:40;95198.16;;;11.81;100.00
39223;BME280;24936;46.328;11.026;2023-09-30T07:13:06;95191.13;;;11.91;100.00
39223;BME280;24936;46.328;11.026;2023-09-30T07:15:34;95191.09;;;12.03;100.00
39223;BME280;24936;46.328;11.026;2023-09-30T07:17:59;95190.63;;;12.19;100.00
39223;BME280;24936;46.328;11.026;2023-09-30T07:20:25;95185.50;;;12.27;100.00
39223;BME280;24936;46.328;11.026;2023-09-30T07:22:51;95176.84;;;12.46;100.00
39223;BME280;24936;46.328;11.026;2023-09-30T07:25:17;95178.78;;;12.44;100.00
39223;BME280;24936;46.328;11.026;2023-09-30T07:27:44;95177.66;;;12.47;100.00
39223;BME280;24936;46.328;11.026;2023-09-30T07:30:11;95174.91;;;12.58;100.00
39223;BME280;24936;46.328;11.026;2023-09-30T07:32:41;95169.66;;;12.68;100.00
39223;BME280;24936;46.328;11.026;2023-09-30T07:35:07;95168.56;;;12.80;100.00
39223;BME280;24936;46.328;11.026;2023-09-30T07:37:33;95171.91;;;12.82;100.00
39223;BME280;24936;46.328;11.026;2023-09-30T07:39:58;95170.81;;;12.85;100.00
39223;BME280;24936;46.328;11.026;2023-09-30T07:42:25;95178.31;;;12.90;100.00
39223;BME280;24936;46.328;11.026;2023-09-30T07:44:50;95175.25;;;12.75;100.00
39223;BME280;24936;46.328;11.026;2023-09-30T07:47:16;95171.38;;;12.98;100.00
39223;BME280;24936;46.328;11.026;2023-09-30T07:49:41;95163.47;;;13.28;100.00
39223;BME280;24936;46.328;11.026;2023-09-30T07:52:07;95176.44;;;13.41;100.00
39223;BME280;24936;46.328;11.026;2023-09-30T07:54:32;95179.78;;;13.43;100.00
39223;BME280;24936;46.328;11.026;2023-09-30T07:56:58;95175.03;;;13.37;100.00
39223;BME280;24936;46.328;11.026;2023-09-30T07:59:25;95173.06;;;13.39;100.00
39223;BME280;24936;46.328;11.026;2023-09-30T08:01:51;95174.31;;;13.64;100.00
39223;BME280;24936;46.328;11.026;2023-09-30T08:04:18;95167.63;;;13.80;100.00
39223;BME280;24936;46.328;11.026;2023-09-30T08:06:43;95165.66;;;13.91;100.00
39223;BME280;24936;46.328;11.026;2023-09-30T08:09:11;95157.25;;;14.06;100.00
39223;BME280;24936;46.328;11.026;2023-09-30T08:11:38;95151.53;;;14.11;100.00
39223;BME280;24936;46.328;11.026;2023-09-30T08:14:04;95154.81;;;14.22;100.00
39223;BME280;24936;46.328;11.026;2023-09-30T08:16:35;95166.34;;;14.31;100.00
39223;BME280;24936;46.328;11.026;2023-09-30T08:19:02;95169.94;;;14.40;100.00
39223;BME280;24936;46.328;11.026;2023-09-30T08:21:28;95162.44;;;14.35;100.00
39223;BME280;24936;46.328;11.026;2023-09-30T08:23:54;95154.88;;;14.41;100.00
39223;BME280;24936;46.328;11.026;2023-09-30T08:26:19;95148.09;;;14.56;100.00
39223;BME280;24936;46.328;11.026;2023-09-30T08:28:45;95147.50;;;14.62;100.00
39223;BME280;24936;46.328;11.026;2023-09-30T08:31:11;95145.38;;;14.76;100.00
39223;BME280;24936;46.328;11.026;2023-09-30T08:33:36;95139.16;;;14.85;100.00
39223;BME280;24936;46.328;11.026;2023-09-30T08:36:05;95129.03;;;14.98;100.00
39223;BME280;24936;46.328;11.026;2023-09-30T08:38:38;95134.34;;;15.17;100.00
39223;BME280;24936;46.328;11.026;2023-09-30T08:41:05;95118.72;;;15.32;100.00
39223;BME280;24936;46.328;11.026;2023-09-30T08:43:36;95118.78;;;15.58;100.00
39223;BME280;24936;46.328;11.026;2023-09-30T08:46:10;95119.19;;;15.89;100.00
39223;BME280;24936;46.328;11.026;2023-09-30T08:48:36;95107.56;;;16.25;100.00
39223;BME280;24936;46.328;11.026;2023-09-30T08:51:02;95085.38;;;17.52;100.00
39223;BME280;24936;46.328;11.026;2023-09-30T08:53:28;95078.34;;;18.48;100.00
39223;BME280;24936;46.328;11.026;2023-09-30T08:55:55;95062.50;;;19.86;100.00
39223;BME280;24936;46.328;11.026;2023-09-30T08:58:26;95055.97;;;20.86;100.00
39223;BME280;24936;46.328;11.026;2023-09-30T09:00:52;95048.47;;;21.18;100.00
39223;BME280;24936;46.328;11.026;2023-09-30T09:03:21;95054.41;;;22.20;100.00
39223;BME280;24936;46.328;11.026;2023-09-30T09:05:53;95050.63;;;23.18;100.00
39223;BME280;24936;46.328;11.026;2023-09-30T09:08:20;95057.47;;;23.34;100.00
39223;BME280;24936;46.328;11.026;2023-09-30T09:10:57;95040.41;;;24.48;100.00
39223;BME280;24936;46.328;11.026;2023-09-30T09:13:23;95047.47;;;24.88;100.00
39223;BME280;24936;46.328;11.026;2023-09-30T09:15:50;95052.69;;;25.15;100.00
39223;BME280;24936;46.328;11.026;2023-09-30T09:18:32;95048.84;;;26.12;100.00
39223;BME280;24936;46.328;11.026;2023-09-30T09:21:20;95061.91;;;26.34;100.00
39223;BME280;24936;46.328;11.026;2023-09-30T09:23:49;95066.41;;;25.96;100.00
39223;BME280;24936;46.328;11.026;2023-09-30T09:26:26;95045.56;;;26.29;100.00
39223;BME280;24936;46.328;11.026;2023-09-30T09:29:01;95055.91;;;26.88;100.00
39223;BME280;24936;46.328;11.026;2023-09-30T09:31:29;95057.84;;;26.99;100.00
39223;BME280;24936;46.328;11.026;2023-09-30T09:33:55;95052.88;;;26.47;100.00
39223;BME280;24936;46.328;11.026;2023-09-30T09:36:21;95055.50;;;26.53;100.00
39223;BME280;24936;46.328;11.026;2023-09-30T09:38:48;95053.00;;;26.15;100.00
39223;BME280;24936;46.328;11.026;2023-09-30T09:41:15;95038.22;;;26.92;100.00
39223;BME280;24936;46.328;11.026;2023-09-30T09:43:44;95038.09;;;26.49;100.00
39223;BME280;24936;46.328;11.026;2023-09-30T09:46:10;95035.84;;;26.65;100.00
39223;BME280;24936;46.328;11.026;2023-09-30T09:48:37;95033.63;;;28.13;100.00
39223;BME280;24936;46.328;11.026;2023-09-30T09:51:06;95029.06;;;27.35;100.00
39223;BME280;24936;46.328;11.026;2023-09-30T09:53:35;95031.28;;;27.92;100.00
39223;BME280;24936;46.328;11.026;2023-09-30T09:56:04;95023.66;;;26.74;100.00
39223;BME280;24936;46.328;11.026;2023-09-30T09:58:33;95018.47;;;27.22;100.00
39223;BME280;24936;46.328;11.026;2023-09-30T10:01:01;95016.44;;;28.43;100.00
39223;BME280;24936;46.328;11.026;2023-09-30T10:03:27;95011.41;;;28.11;100.00
39223;BME280;24936;46.328;11.026;2023-09-30T10:05:53;95008.84;;;27.92;100.00
39223;BME280;24936;46.328;11.026;2023-09-30T10:08:21;95012.84;;;28.13;99.08
39223;BME280;24936;46.328;11.026;2023-09-30T10:10:54;95013.53;;;28.20;93.71
39223;BME280;24936;46.328;11.026;2023-09-30T10:13:52;95005.81;;;28.53;96.30
39223;BME280;24936;46.328;11.026;2023-09-30T10:21:34;94999.41;;;27.95;100.00
39223;BME280;24936;46.328;11.026;2023-09-30T10:30:15;94974.91;;;27.30;100.00
39223;BME280;24936;46.328;11.026;2023-09-30T10:37:43;94970.97;;;27.80;100.00
39223;BME280;24936;46.328;11.026;2023-09-30T10:40:08;94973.72;;;27.26;100.00
39223;BME280;24936;46.328;11.026;2023-09-30T10:42:48;94970.56;;;26.56;100.00
39223;BME280;24936;46.328;11.026;2023-09-30T10:50:51;94969.59;;;25.25;100.00
39223;BME280;24936;46.328;11.026;2023-09-30T10:53:18;94960.72;;;24.93;100.00
39223;BME280;24936;46.328;11.026;2023-09-30T10:55:54;94958.13;;;24.79;100.00
39223;BME280;24936;46.328;11.026;2023-09-30T10:58:20;94950.41;;;25.15;100.00
39223;BME280;24936;46.328;11.026;2023-09-30T11:00:53;94947.78;;;25.33;100.00
39223;BME280;24936;46.328;11.026;2023-09-30T11:03:22;94940.25;;;26.05;100.00
39223;BME280;24936;46.328;11.026;2023-09-30T11:05:51;94936.19;;;26.33;100.00
39223;BME280;24936;46.328;11.026;2023-09-30T11:08:21;94934.41;;;26.26;100.00
39223;BME280;24936;46.328;11.026;2023-09-30T11:10:50;94933.56;;;26.45;100.00
39223;BME280;24936;46.328;11.026;2023-09-30T11:13:20;94923.72;;;27.35;100.00
39223;BME280;24936;46.328;11.026;2023-09-30T11:15:46;94924.50;;;27.24;100.00
39223;BME280;24936;46.328;11.026;2023-09-30T11:18:18;94915.13;;;27.14;100.00
39223;BME280;24936;46.328;11.026;2023-09-30T11:20:44;94912.25;;;26.85;100.00
39223;BME280;24936;46.328;11.026;2023-09-30T11:23:11;94908.06;;;27.13;100.00
39223;BME280;24936;46.328;11.026;2023-09-30T11:25:39;94906.59;;;27.65;100.00
39223;BME280;24936;46.328;11.026;2023-09-30T11:30:57;94898.78;;;28.04;100.00
39223;BME280;24936;46.328;11.026;2023-09-30T11:33:23;94898.00;;;26.78;100.00
39223;BME280;24936;46.328;11.026;2023-09-30T11:36:01;94891.34;;;25.64;100.00
39223;BME280;24936;46.328;11.026;2023-09-30T11:38:32;94895.06;;;25.19;100.00
39223;BME280;24936;46.328;11.026;2023-09-30T11:41:02;94886.25;;;25.56;100.00
39223;BME280;24936;46.328;11.026;2023-09-30T11:43:30;94894.13;;;26.74;100.00
39223;BME280;24936;46.328;11.026;2023-09-30T11:46:09;94899.09;;;27.55;100.00
39223;BME280;24936;46.328;11.026;2023-09-30T11:48:40;94894.41;;;28.03;100.00
39223;BME280;24936;46.328;11.026;2023-09-30T11:51:06;94889.16;;;28.37;100.00
39223;BME280;24936;46.328;11.026;2023-09-30T11:53:32;94901.72;;;28.44;100.00
39223;BME280;24936;46.328;11.026;2023-09-30T11:56:01;94896.66;;;28.93;100.00
39223;BME280;24936;46.328;11.026;2023-09-30T11:58:28;94891.34;;;29.50;100.00
39223;BME280;24936;46.328;11.026;2023-09-30T12:01:00;94877.81;;;29.50;100.00
39223;BME280;24936;46.328;11.026;2023-09-30T12:03:26;94878.63;;;29.50;99.47
39223;BME280;24936;46.328;11.026;2023-09-30T12:05:55;94879.72;;;30.88;90.18
39223;BME280;24936;46.328;11.026;2023-09-30T12:08:24;94887.16;;;30.70;85.87
39223;BME280;24936;46.328;11.026;2023-09-30T12:10:49;94881.69;;;29.03;93.85
39223;BME280;24936;46.328;11.026;2023-09-30T12:13:15;94868.19;;;29.08;100.00
39223;BME280;24936;46.328;11.026;2023-09-30T12:15:42;94867.72;;;28.94;100.00
39223;BME280;24936;46.328;11.026;2023-09-30T12:18:08;94865.00;;;29.11;93.81
39223;BME280;24936;46.328;11.026;2023-09-30T12:20:35;94859.31;;;28.32;100.00
39223;BME280;24936;46.328;11.026;2023-09-30T12:23:01;94860.72;;;28.81;100.00
39223;BME280;24936;46.328;11.026;2023-09-30T12:25:27;94867.88;;;29.78;94.19
39223;BME280;24936;46.328;11.026;2023-09-30T12:27:53;94860.25;;;29.35;94.59
39223;BME280;24936;46.328;11.026;2023-09-30T12:30:21;94859.25;;;29.24;98.54
39223;BME280;24936;46.328;11.026;2023-09-30T12:32:47;94860.16;;;29.13;84.49
39223;BME280;24936;46.328;11.026;2023-09-30T12:35:12;94860.56;;;29.39;88.50
39223;BME280;24936;46.328;11.026;2023-09-30T12:37:38;94855.09;;;29.56;90.33
39223;BME280;24936;46.328;11.026;2023-09-30T12:40:07;94860.25;;;29.18;94.11
39223;BME280;24936;46.328;11.026;2023-09-30T12:42:33;94867.56;;;30.18;73.96
39223;BME280;24936;46.328;11.026;2023-09-30T12:45:01;94859.56;;;29.84;93.03
39223;BME280;24936;46.328;11.026;2023-09-30T12:47:27;94859.25;;;29.07;100.00
39223;BME280;24936;46.328;11.026;2023-09-30T12:49:53;94859.00;;;29.82;91.94
39223;BME280;24936;46.328;11.026;2023-09-30T12:52:20;94855.16;;;30.00;97.73
39223;BME280;24936;46.328;11.026;2023-09-30T12:54:46;94857.81;;;29.95;83.75
39223;BME280;24936;46.328;11.026;2023-09-30T12:57:13;94848.72;;;29.84;80.99
39223;BME280;24936;46.328;11.026;2023-09-30T12:59:45;94849.78;;;29.27;81.99
39223;BME280;24936;46.328;11.026;2023-09-30T13:02:12;94848.03;;;28.52;90.79
39223;BME280;24936;46.328;11.026;2023-09-30T13:04:38;94841.31;;;28.55;100.00
39223;BME280;24936;46.328;11.026;2023-09-30T13:07:09;94841.97;;;27.63;100.00